createdAt,value
2019-04-20T00:00:59.891Z,75.03
2019-04-20T00:03:36.807Z,74.48
2019-04-20T00:06:03.414Z,75.15
2019-04-20T00:08:37.476Z,81.21
2019-04-20T00:11:11.757Z,79.37
2019-04-20T00:13:48.925Z,75.88
2019-04-20T00:16:08.652Z,76.27
2019-04-20T00:18:45.042Z,77.65
2019-04-20T00:21:28.946Z,78.17
2019-04-20T00:24:10.102Z,78.00
2019-04-20T00:27:06.147Z,79.84
2019-04-20T00:29:25.531Z,78.12
2019-04-20T00:31:49.099Z,77.48
2019-04-20T00:34:20.324Z,81.99
2019-04-20T00:36:43.209Z,82.55
2019-04-20T00:39:15.144Z,79.91
2019-04-20T00:41:51.729Z,77.03
2019-04-20T00:44:23.288Z,79.74
2019-04-20T00:47:00.980Z,79.06
2019-04-20T00:49:34.958Z,76.51
2019-04-20T00:52:18.753Z,79.63
2019-04-20T00:54:24.302Z,78.68
2019-04-20T00:57:06.640Z,77.53
2019-04-20T00:59:43.046Z,78.53
2019-04-20T01:02:12.640Z,79.08
2019-04-20T01:04:50.013Z,79.24
2019-04-20T01:07:32.042Z,79.95
2019-04-20T01:10:13.194Z,84.32
2019-04-20T01:12:44.432Z,84.71
2019-04-20T01:15:25.640Z,83.65
2019-04-20T01:17:47.344Z,85.52
2019-04-20T01:20:17.481Z,82.18
2019-04-20T01:22:54.611Z,81.85
2019-04-20T01:25:28.145Z,86.24
2019-04-20T01:28:07.765Z,84.33
2019-04-20T01:30:32.310Z,82.58
2019-04-20T01:33:12.460Z,85.65
2019-04-20T01:35:47.925Z,85.18
2019-04-20T01:38:16.779Z,83.08
2019-04-20T01:40:31.619Z,86.61
2019-04-20T01:43:01.668Z,87.25
2019-04-20T01:45:36.291Z,83.85
2019-04-20T01:48:06.136Z,87.15
2019-04-20T01:50:38.054Z,83.15
2019-04-20T01:53:19.035Z,83.24
2019-04-20T01:55:50.624Z,85.13
2019-04-20T01:58:37.693Z,87.84
2019-04-20T02:01:16.187Z,85.52
2019-04-20T02:03:48.474Z,87.48
2019-04-20T02:06:20.199Z,86.56
2019-04-20T02:08:51.702Z,89.41
2019-04-20T02:11:25.962Z,90.45
2019-04-20T02:13:57.306Z,88.66
2019-04-20T02:16:33.571Z,88.03
2019-04-20T02:19:13.547Z,86.96
2019-04-20T02:21:46.688Z,90.42
2019-04-20T02:24:04.689Z,86.47
2019-04-20T02:26:32.881Z,91.17
2019-04-20T02:29:24.639Z,90.35
2019-04-20T02:34:59.839Z,92.89
2019-04-20T02:45:24.159Z,90.79
2019-04-20T02:50:20.668Z,89.85
2019-04-20T02:52:56.469Z,90.29
2019-04-20T02:55:26.831Z,90.56
2019-04-20T03:02:38.308Z,94.45
2019-04-20T03:05:15.187Z,98.72
2019-04-20T03:07:50.439Z,97.83
2019-04-20T03:10:26.514Z,98.38
2019-04-20T03:12:59.718Z,94.88
2019-04-20T03:15:29.545Z,95.79
2019-04-20T03:18:03.673Z,93.16
2019-04-20T03:20:39.082Z,93.75
2019-04-20T03:26:05.538Z,94.29
2019-04-20T03:29:07.828Z,93.80
2019-04-20T03:36:59.228Z,94.76
2019-04-20T03:39:29.862Z,96.40
2019-04-20T03:41:46.342Z,96.19
2019-04-20T03:44:17.834Z,98.12
2019-04-20T03:46:52.194Z,100.00
2019-04-20T03:49:42.485Z,99.41
2019-04-20T03:52:23.475Z,97.97
2019-04-20T03:55:23.973Z,97.73
2019-04-20T03:58:01.491Z,98.44
2019-04-20T04:00:36.279Z,99.24
2019-04-20T04:03:45.882Z,100.00
2019-04-20T04:05:50.932Z,100.00
2019-04-20T04:08:19.405Z,100.00
2019-04-20T04:11:02.418Z,100.00
2019-04-20T04:13:16.886Z,100.00
2019-04-20T04:15:52.275Z,100.00
2019-04-20T04:18:28.063Z,100.00
2019-04-20T04:21:00.120Z,100.00
2019-04-20T04:23:42.496Z,99.52
2019-04-20T04:26:12.379Z,99.65
2019-04-20T04:28:43.345Z,99.61
2019-04-20T04:31:17.629Z,100.00
2019-04-20T04:33:55.873Z,99.40
2019-04-20T04:36:18.192Z,100.00
2019-04-20T04:39:07.544Z,99.11
2019-04-20T04:41:27.066Z,100.00
2019-04-20T04:44:00.414Z,100.00
2019-04-20T04:46:12.401Z,100.00
2019-04-20T04:48:45.942Z,100.00
2019-04-20T04:51:21.208Z,100.00
2019-04-20T04:53:56.227Z,100.00
2019-04-20T04:56:20.593Z,100.00
2019-04-20T04:58:49.576Z,100.00
2019-04-20T05:01:24.854Z,100.00
2019-04-20T05:04:14.690Z,99.71
2019-04-20T05:06:39.831Z,100.00
2019-04-20T05:09:00.406Z,100.00
2019-04-20T05:11:27.948Z,99.31
2019-04-20T05:14:03.597Z,93.86
2019-04-20T05:16:45.090Z,86.96
2019-04-20T05:19:26.531Z,76.05
2019-04-20T05:22:05.366Z,74.56
2019-04-20T05:24:34.955Z,64.99
2019-04-20T05:27:52.419Z,62.14
2019-04-20T05:30:03.657Z,58.76
2019-04-20T05:32:44.586Z,56.63
2019-04-20T05:35:26.949Z,55.26
2019-04-20T05:38:12.029Z,56.69
2019-04-20T05:40:34.032Z,51.53
2019-04-20T05:43:12.855Z,52.98
2019-04-20T05:45:39.908Z,51.95
2019-04-20T05:48:15.156Z,50.31
2019-04-20T05:50:42.200Z,49.87
2019-04-20T05:53:19.262Z,49.48
2019-04-20T05:55:51.563Z,50.28
2019-04-20T05:58:22.345Z,50.04
2019-04-20T06:00:55.047Z,47.41
2019-04-20T06:03:24.631Z,48.56
2019-04-20T06:06:03.488Z,48.16
2019-04-20T06:08:39.000Z,48.03
2019-04-20T06:11:04.161Z,45.33
2019-04-20T06:13:32.637Z,43.22
2019-04-20T06:16:14.362Z,44.22
2019-04-20T06:18:45.938Z,43.84
2019-04-20T06:21:32.317Z,44.82
2019-04-20T06:24:36.354Z,43.43
2019-04-20T06:26:59.255Z,42.68
2019-04-20T06:29:23.702Z,41.47
2019-04-20T06:32:05.175Z,39.72
2019-04-20T06:34:40.043Z,39.83
2019-04-20T06:37:02.145Z,40.26
2019-04-20T06:39:37.018Z,39.92
2019-04-20T06:45:02.226Z,37.57
2019-04-20T06:47:15.802Z,37.32
2019-04-20T06:49:40.594Z,37.69
2019-04-20T06:52:27.367Z,36.11
2019-04-20T06:55:07.065Z,34.79
2019-04-20T06:57:54.752Z,34.76
2019-04-20T07:00:15.365Z,34.30
2019-04-20T07:05:18.888Z,34.27
2019-04-20T07:07:54.875Z,33.44
2019-04-20T07:10:27.206Z,31.93
2019-04-20T07:12:49.348Z,32.01
2019-04-20T07:15:25.509Z,30.26
2019-04-20T07:20:41.191Z,29.19
2019-04-20T07:23:18.243Z,28.37
2019-04-20T07:25:44.725Z,28.83
2019-04-20T07:28:14.398Z,29.16
2019-04-20T07:30:40.335Z,28.47
2019-04-20T07:33:18.633Z,28.12
2019-04-20T07:35:46.537Z,28.85
2019-04-20T07:38:32.931Z,27.86
2019-04-20T07:40:42.903Z,27.15
2019-04-20T07:43:19.870Z,26.48
2019-04-20T07:45:50.225Z,25.68
2019-04-20T07:48:21.263Z,24.89
2019-04-20T07:50:48.589Z,24.13
2019-04-20T07:53:25.782Z,23.94
2019-04-20T07:56:07.572Z,22.87
2019-04-20T07:58:25.050Z,23.56
2019-04-20T08:01:15.174Z,22.83
2019-04-20T08:03:52.630Z,21.60
2019-04-20T08:06:35.581Z,22.65
2019-04-20T08:09:11.588Z,22.92
2019-04-20T08:11:54.940Z,21.51
2019-04-20T08:14:24.167Z,20.92
2019-04-20T08:17:12.163Z,19.91
2019-04-20T08:19:22.772Z,19.22
2019-04-20T08:21:57.135Z,19.55
2019-04-20T08:24:30.515Z,19.43
2019-04-20T08:26:50.223Z,19.55
2019-04-20T08:29:40.491Z,19.66
2019-04-20T08:32:22.905Z,19.32
2019-04-20T08:34:56.538Z,19.29
2019-04-20T08:37:20.763Z,18.42
2019-04-20T08:40:05.325Z,18.19
2019-04-20T08:42:30.441Z,18.61
2019-04-20T08:45:03.947Z,18.79
2019-04-20T08:47:50.462Z,18.60
2019-04-20T08:55:19.356Z,16.80
2019-04-20T08:57:35.558Z,18.08
2019-04-20T09:00:09.249Z,19.98
2019-04-20T09:02:47.718Z,20.33
2019-04-20T09:05:28.570Z,19.38
2019-04-20T09:07:56.653Z,18.57
2019-04-20T09:10:40.740Z,18.99
2019-04-20T09:13:03.235Z,18.66
2019-04-20T09:15:21.275Z,19.01
2019-04-20T09:18:00.976Z,20.28
2019-04-20T09:20:42.360Z,21.30
2019-04-20T09:23:16.609Z,22.90
2019-04-20T09:28:38.266Z,23.01
2019-04-20T09:31:36.945Z,24.83
2019-04-20T09:34:00.355Z,25.78
2019-04-20T09:36:29.197Z,27.06
2019-04-20T09:39:21.109Z,26.93
2019-04-20T09:42:09.698Z,28.00
2019-04-20T09:44:44.996Z,27.76
2019-04-20T09:47:12.344Z,27.90
2019-04-20T09:49:54.921Z,28.25
2019-04-20T09:52:28.995Z,29.42
2019-04-20T09:55:02.925Z,28.75
2019-04-20T09:57:39.442Z,28.97
2019-04-20T10:00:10.372Z,29.50
2019-04-20T10:02:27.163Z,28.79
2019-04-20T10:04:55.587Z,28.45
2019-04-20T10:07:29.882Z,28.66
2019-04-20T10:09:57.845Z,28.53
2019-04-20T10:12:29.103Z,28.43
2019-04-20T10:15:04.154Z,28.26
2019-04-20T10:17:33.234Z,28.58
2019-04-20T10:20:11.825Z,29.53
2019-04-20T10:22:34.568Z,28.51
2019-04-20T10:25:07.051Z,28.35
2019-04-20T10:27:36.980Z,27.87
2019-04-20T10:30:08.219Z,27.46
2019-04-20T10:32:43.026Z,27.35
2019-04-20T10:35:13.188Z,26.84
2019-04-20T10:37:47.827Z,26.10
2019-04-20T10:40:36.458Z,27.05
2019-04-20T10:42:50.124Z,27.57
2019-04-20T10:45:21.245Z,27.06
2019-04-20T10:47:52.815Z,26.89
2019-04-20T10:50:23.361Z,26.95
2019-04-20T10:52:54.047Z,25.48
2019-04-20T10:55:25.161Z,25.86
2019-04-20T10:57:55.587Z,25.27
2019-04-20T11:00:41.931Z,24.45
2019-04-20T11:03:13.620Z,23.94
2019-04-20T11:05:44.713Z,24.33
2019-04-20T11:08:16.738Z,24.52
2019-04-20T11:10:59.236Z,24.22
2019-04-20T11:13:19.437Z,24.55
2019-04-20T11:15:50.574Z,22.73
2019-04-20T11:18:21.772Z,24.27
2019-04-20T11:20:53.271Z,23.69
2019-04-20T11:23:24.455Z,22.42
2019-04-20T11:25:55.925Z,20.54
2019-04-20T11:28:26.293Z,19.17
2019-04-20T11:30:56.355Z,18.10
2019-04-20T11:33:28.392Z,16.10
2019-04-20T11:35:59.131Z,16.08
2019-04-20T11:38:30.195Z,16.23
2019-04-20T11:41:10.625Z,17.47
2019-04-20T11:43:33.619Z,16.08
2019-04-20T11:46:04.816Z,14.75
2019-04-20T11:48:35.033Z,14.46
2019-04-20T11:51:05.545Z,13.30
2019-04-20T11:53:36.414Z,13.69
2019-04-20T11:56:13.457Z,17.41
2019-04-20T11:58:38.771Z,14.07
2019-04-20T12:01:37.033Z,12.52
2019-04-20T12:04:22.740Z,11.18
2019-04-20T12:06:35.077Z,12.42
2019-04-20T12:09:10.791Z,12.05
2019-04-20T12:11:56.021Z,12.62
2019-04-20T12:14:12.754Z,14.18
2019-04-20T12:16:43.747Z,13.49
2019-04-20T12:19:14.685Z,14.89
2019-04-20T12:21:45.593Z,13.00
2019-04-20T12:24:16.400Z,15.21
2019-04-20T12:26:46.989Z,13.39
2019-04-20T12:29:19.550Z,12.00
2019-04-20T12:31:53.853Z,12.93
2019-04-20T12:34:22.313Z,13.33
2019-04-20T12:36:53.283Z,13.77
2019-04-20T12:39:24.766Z,13.27
2019-04-20T12:41:58.780Z,15.24
2019-04-20T12:44:27.915Z,16.56
2019-04-20T12:46:59.545Z,18.72
2019-04-20T12:49:29.694Z,20.19
2019-04-20T12:52:04.411Z,20.30
2019-04-20T12:54:32.364Z,20.17
2019-04-20T12:57:02.604Z,20.37
2019-04-20T12:59:33.667Z,20.11
2019-04-20T13:02:03.543Z,18.56
2019-04-20T13:04:35.337Z,16.68
2019-04-20T13:07:05.954Z,15.23
2019-04-20T13:09:44.298Z,13.98
2019-04-20T13:12:46.663Z,13.61
2019-04-20T13:15:40.378Z,14.83
2019-04-20T13:18:11.550Z,15.42
2019-04-20T13:20:41.846Z,15.54
2019-04-20T13:23:12.896Z,13.74
2019-04-20T13:25:43.305Z,13.95
2019-04-20T13:28:13.295Z,13.97
2019-04-20T13:30:43.865Z,13.48
2019-04-20T13:33:14.195Z,13.93
2019-04-20T13:35:44.204Z,14.01
2019-04-20T13:38:14.240Z,13.70
2019-04-20T13:40:45.867Z,13.17
2019-04-20T13:43:15.814Z,12.85
2019-04-20T13:45:46.845Z,12.83
2019-04-20T13:48:16.987Z,11.62
2019-04-20T13:50:46.912Z,12.22
2019-04-20T13:53:17.104Z,12.87
2019-04-20T13:55:47.744Z,13.35
2019-04-20T13:58:35.968Z,13.84
2019-04-20T14:01:26.595Z,15.18
2019-04-20T14:04:05.711Z,15.39
2019-04-20T14:06:37.200Z,15.61
2019-04-20T14:09:09.903Z,15.30
2019-04-20T14:11:41.278Z,14.82
2019-04-20T14:14:12.965Z,14.95
2019-04-20T14:16:43.136Z,15.05
2019-04-20T14:19:14.228Z,15.39
2019-04-20T14:21:44.428Z,14.68
2019-04-20T14:24:15.064Z,14.93
2019-04-20T14:26:45.804Z,15.32
2019-04-20T14:29:16.986Z,15.21
2019-04-20T14:31:48.023Z,14.07
2019-04-20T14:34:18.026Z,13.69
2019-04-20T14:36:49.063Z,14.93
2019-04-20T14:39:20.286Z,13.86
2019-04-20T14:41:51.914Z,13.62
2019-04-20T14:44:21.877Z,13.88
2019-04-20T14:46:51.927Z,13.75
2019-04-20T14:49:22.956Z,13.61
2019-04-20T14:51:55.829Z,13.96
2019-04-20T14:54:25.562Z,13.25
2019-04-20T14:56:55.869Z,13.95
2019-04-20T14:59:45.416Z,13.90
2019-04-20T15:02:21.670Z,14.29
2019-04-20T15:04:52.727Z,14.23
2019-04-20T15:07:22.976Z,14.19
2019-04-20T15:09:53.027Z,14.50
2019-04-20T15:12:35.974Z,15.14
2019-04-20T15:14:54.683Z,14.48
2019-04-20T15:17:30.740Z,14.03
2019-04-20T15:20:19.253Z,13.81
2019-04-20T15:22:51.675Z,14.79
2019-04-20T15:25:21.577Z,14.32
2019-04-20T15:27:52.360Z,14.02
2019-04-20T15:30:22.456Z,13.46
2019-04-20T15:32:52.592Z,12.80
2019-04-20T15:35:23.338Z,13.74
2019-04-20T15:37:55.249Z,13.19
2019-04-20T15:40:26.859Z,12.52
2019-04-20T15:43:04.341Z,12.30
2019-04-20T15:45:29.686Z,12.05
2019-04-20T15:47:59.755Z,12.22
2019-04-20T15:50:30.207Z,12.78
2019-04-20T15:53:01.933Z,13.14
2019-04-20T15:55:37.695Z,12.28
2019-04-20T15:58:06.422Z,13.48
2019-04-20T16:00:36.465Z,13.97
2019-04-20T16:03:12.110Z,13.80
2019-04-20T16:05:53.369Z,13.38
2019-04-20T16:08:38.738Z,13.23
2019-04-20T16:11:09.377Z,12.92
2019-04-20T16:13:44.021Z,13.15
2019-04-20T16:16:12.141Z,12.75
2019-04-20T16:18:43.253Z,13.47
2019-04-20T16:21:20.154Z,12.61
2019-04-20T16:23:57.272Z,13.17
2019-04-20T16:26:33.530Z,12.45
2019-04-20T16:29:03.923Z,13.28
2019-04-20T16:31:33.901Z,13.64
2019-04-20T16:34:03.796Z,13.86
2019-04-20T16:36:34.658Z,13.60
2019-04-20T16:39:09.034Z,13.96
2019-04-20T16:41:38.409Z,13.93
2019-04-20T16:44:09.283Z,14.29
2019-04-20T16:46:40.427Z,13.83
2019-04-20T16:49:10.915Z,14.16
2019-04-20T16:51:41.124Z,14.70
2019-04-20T16:54:11.991Z,14.90
2019-04-20T16:56:42.585Z,14.90
2019-04-20T16:59:14.197Z,15.43
2019-04-20T17:01:44.643Z,15.79
2019-04-20T17:04:19.141Z,15.50
2019-04-20T17:07:05.956Z,15.94
2019-04-20T17:09:36.199Z,15.71
2019-04-20T17:12:06.322Z,16.16
2019-04-20T17:14:37.832Z,15.67
2019-04-20T17:17:09.381Z,16.33
2019-04-20T17:19:39.878Z,17.00
2019-04-20T17:22:09.910Z,17.78
2019-04-20T17:24:40.124Z,18.69
2019-04-20T17:27:33.051Z,19.18
2019-04-20T17:30:33.591Z,19.11
2019-04-20T17:33:06.230Z,18.23
2019-04-20T17:35:47.349Z,18.55
2019-04-20T17:38:08.970Z,18.41
2019-04-20T17:40:55.988Z,19.54
2019-04-20T17:43:21.090Z,19.47
2019-04-20T17:45:52.347Z,19.84
2019-04-20T17:48:29.775Z,19.93
2019-04-20T17:51:14.182Z,20.55
2019-04-20T17:53:45.020Z,21.07
2019-04-20T17:56:10.327Z,21.35
2019-04-20T17:58:41.354Z,21.86
2019-04-20T18:01:41.311Z,22.13
2019-04-20T18:04:34.047Z,22.55
2019-04-20T18:06:47.743Z,22.87
2019-04-20T18:09:34.878Z,23.83
2019-04-20T18:11:46.740Z,24.13
2019-04-20T18:14:28.525Z,24.72
2019-04-20T18:17:02.260Z,24.68
2019-04-20T18:19:29.191Z,26.16
2019-04-20T18:22:05.773Z,25.75
2019-04-20T18:25:02.673Z,26.40
2019-04-20T18:27:31.977Z,27.29
2019-04-20T18:29:58.294Z,27.42
2019-04-20T18:32:23.500Z,27.86
2019-04-20T18:35:00.854Z,27.44
2019-04-20T18:37:28.843Z,35.12
2019-04-20T18:40:06.208Z,29.13
2019-04-20T18:42:38.421Z,30.23
2019-04-20T18:45:21.625Z,29.38
2019-04-20T18:47:53.974Z,27.74
2019-04-20T18:50:20.605Z,27.31
2019-04-20T18:52:42.164Z,28.58
2019-04-20T18:55:17.399Z,29.36
2019-04-20T18:57:44.712Z,30.12
2019-04-20T19:00:22.575Z,31.64
2019-04-20T19:02:52.588Z,31.56
2019-04-20T19:05:21.840Z,35.60
2019-04-20T19:07:59.282Z,36.38
2019-04-20T19:10:28.796Z,35.65
2019-04-20T19:13:03.339Z,34.61
2019-04-20T19:16:07.897Z,33.86
2019-04-20T19:18:58.517Z,34.32
2019-04-20T19:21:15.169Z,34.04
2019-04-20T19:23:54.877Z,32.85
2019-04-20T19:26:21.062Z,33.63
2019-04-20T19:28:53.892Z,33.25
2019-04-20T19:31:38.016Z,33.75
2019-04-20T19:34:16.811Z,34.87
2019-04-20T19:36:34.096Z,36.10
2019-04-20T19:39:17.200Z,33.70
2019-04-20T19:41:39.055Z,35.06
2019-04-20T19:44:13.144Z,33.90
2019-04-20T19:49:19.701Z,35.74
2019-04-20T19:52:02.858Z,37.57
2019-04-20T19:54:30.139Z,38.79
2019-04-20T19:56:54.327Z,38.38
2019-04-20T19:59:21.374Z,39.82
2019-04-20T20:01:43.043Z,37.47
2019-04-20T20:04:13.749Z,37.20
2019-04-20T20:06:50.600Z,38.73
2019-04-20T20:09:17.807Z,38.13
2019-04-20T20:11:48.531Z,40.00
2019-04-20T20:14:31.986Z,40.85
2019-04-20T20:17:10.146Z,40.41
2019-04-20T20:19:38.492Z,42.24
2019-04-20T20:22:05.558Z,39.24
2019-04-20T20:24:27.113Z,39.16
2019-04-20T20:27:02.534Z,40.92
2019-04-20T20:29:37.638Z,42.31
2019-04-20T20:32:11.700Z,41.71
2019-04-20T20:34:38.362Z,40.79
2019-04-20T20:37:09.681Z,43.16
2019-04-20T20:39:38.662Z,41.00
2019-04-20T20:42:19.822Z,41.25
2019-04-20T20:44:48.643Z,42.25
2019-04-20T20:47:36.846Z,42.61
2019-04-20T20:50:08.803Z,43.05
2019-04-20T20:52:31.514Z,42.90
2019-04-20T20:54:56.427Z,43.23
2019-04-20T20:57:22.359Z,46.51
2019-04-20T20:59:59.343Z,43.43
2019-04-20T21:02:33.885Z,46.50
2019-04-20T21:04:53.664Z,44.72
2019-04-20T21:07:24.694Z,45.06
2019-04-20T21:09:54.701Z,45.52
2019-04-20T21:12:25.738Z,46.93
2019-04-20T21:15:00.376Z,46.13
2019-04-20T21:17:40.771Z,49.34
2019-04-20T21:20:17.862Z,47.59
2019-04-20T21:22:50.298Z,46.35
2019-04-20T21:25:05.389Z,47.07
2019-04-20T21:27:35.389Z,47.46
2019-04-20T21:30:17.250Z,48.88
2019-04-20T21:32:43.981Z,49.75
2019-04-20T21:35:13.843Z,50.73
2019-04-20T21:37:51.225Z,50.23
2019-04-20T21:40:23.811Z,49.39
2019-04-20T21:42:53.474Z,49.70
2019-04-20T21:45:24.862Z,49.91
2019-04-20T21:47:50.200Z,53.62
2019-04-20T21:50:34.666Z,51.81
2019-04-20T21:52:58.587Z,52.38
2019-04-20T21:55:24.039Z,52.18
2019-04-20T21:57:57.356Z,53.70
2019-04-20T22:00:47.726Z,54.74
2019-04-20T22:03:17.247Z,54.74
2019-04-20T22:05:48.498Z,53.84
2019-04-20T22:08:19.786Z,56.49
2019-04-20T22:10:50.279Z,56.75
2019-04-20T22:13:26.770Z,58.60
2019-04-20T22:16:01.413Z,57.73
2019-04-20T22:18:27.148Z,57.98
2019-04-20T22:21:09.461Z,58.51
2019-04-20T22:23:49.240Z,58.11
2019-04-20T22:26:11.870Z,59.10
2019-04-20T22:28:34.394Z,58.97
2019-04-20T22:31:04.527Z,59.86
2019-04-20T22:33:39.683Z,60.87
2019-04-20T22:36:11.333Z,62.90
2019-04-20T22:39:05.105Z,62.68
2019-04-20T22:41:38.680Z,61.09
2019-04-20T22:44:13.630Z,60.65
2019-04-20T22:46:43.698Z,59.90
2019-04-20T22:49:26.522Z,60.60
2019-04-20T22:51:56.741Z,62.25
2019-04-20T22:54:34.570Z,64.50
2019-04-20T22:56:57.050Z,61.97
2019-04-20T22:59:23.345Z,61.82
2019-04-20T23:01:55.197Z,62.76
2019-04-20T23:04:22.686Z,62.08
2019-04-20T23:06:54.125Z,65.24
2019-04-20T23:09:24.737Z,69.03
2019-04-20T23:12:03.555Z,65.13
2019-04-20T23:14:26.640Z,64.51
2019-04-20T23:16:57.596Z,68.54
2019-04-20T23:19:36.599Z,67.42
2019-04-20T23:22:03.487Z,68.77
2019-04-20T23:24:31.369Z,65.89
2019-04-20T23:27:04.467Z,70.04
2019-04-20T23:29:37.906Z,69.96
2019-04-20T23:32:08.355Z,69.63
2019-04-20T23:34:38.967Z,65.77
2019-04-20T23:37:16.277Z,68.60
2019-04-20T23:39:43.241Z,68.98
2019-04-20T23:42:16.014Z,66.75
2019-04-20T23:45:14.442Z,69.94
2019-04-20T23:47:57.706Z,71.78
2019-04-20T23:50:42.385Z,69.91
2019-04-20T23:53:13.895Z,68.05
2019-04-20T23:55:28.165Z,70.77
2019-04-20T23:58:04.980Z,69.60
